Terminal Aerodrome Forecast
Issued by NWS Charleston, WV

Home | Current Version | Previous Version | Text Only | Print | Product List | Glossary On
Versions: 1 2 3 4 5 6 7 8 9 10 11 12 13 14 15 16 17 18 19 20 21 22
000
FTUS41 KRLX 251500 AAA
TAFHTS
TAF AMD
KHTS 251505Z 2515/2612 10004KT 6SM SHRA OVC045
     FM251700 09006KT 5SM SHRA OVC025
     FM251900 08006KT P6SM BKN015
     FM260200 06005KT 6SM SHRA BR OVC015
     FM260500 03006KT 5SM SHRA BR OVC010
     FM260900 36007KT 6SM BR OVC020=

USA.gov is the U.S. government's official web portal to all federal, state and local government web resources and services.